Time;durP1;ratioP1;P1;durP2;ratioP2;P2;SDS_P1;SDS_P2;PMS_P1;PMS_P2;Temp;Humidity;BMP_temperature;BMP_pressure;BME280_temperature;BME280_humidity;BME280_pressure;Samples;Min_cycle;Max_cycle;Signal;HPM_P1;HPM_P2
2023/03/03 00:01:57;;;;;;;28.02;19.73;;;;;;;2.08;100.00;102308.44;5103639;28;20096;-62
2023/03/03 00:04:25;;;;;;;25.67;19.73;;;;;;;2.03;100.00;102314.31;5131164;28;20052;-62
2023/03/03 00:06:53;;;;;;;27.75;19.75;;;;;;;1.85;100.00;102314.56;5124078;28;20051;-65
2023/03/03 00:09:21;;;;;;;28.30;20.33;;;;;;;1.83;100.00;102310.38;5103478;28;20082;-66
2023/03/03 00:11:53;;;;;;;26.35;19.10;;;;;;;1.84;100.00;102310.19;5079263;28;20480;-65
2023/03/03 00:14:31;;;;;;;24.60;18.42;;;;;;;1.87;100.00;102311.69;5109577;28;20073;-65
2023/03/03 00:17:33;;;;;;;27.55;20.20;;;;;;;1.98;100.00;102314.00;5115182;28;20047;-65
2023/03/03 00:20:07;;;;;;;25.17;18.70;;;;;;;1.96;100.00;102313.34;5115063;28;20055;-65
2023/03/03 00:22:36;;;;;;;24.95;19.13;;;;;;;2.07;100.00;102318.34;5081389;28;20043;-65
2023/03/03 00:25:28;;;;;;;26.30;18.85;;;;;;;2.09;100.00;102316.31;5115094;28;20052;-65
2023/03/03 00:28:06;;;;;;;25.52;18.52;;;;;;;2.05;100.00;102315.00;5116547;28;20048;-65
2023/03/03 00:30:34;;;;;;;27.83;20.85;;;;;;;2.02;100.00;102320.72;5102252;28;20068;-64
2023/03/03 00:33:02;;;;;;;25.95;19.10;;;;;;;2.03;100.00;102322.38;5078635;28;20040;-66
2023/03/03 00:35:35;;;;;;;28.42;20.38;;;;;;;1.96;100.00;102321.41;5095734;28;20044;-64
2023/03/03 00:38:17;;;;;;;25.50;17.98;;;;;;;2.03;100.00;102326.94;5060218;28;20056;-66
2023/03/03 00:40:46;;;;;;;27.63;19.02;;;;;;;2.03;100.00;102327.75;5095764;28;20381;-65
2023/03/03 00:43:18;;;;;;;24.30;18.02;;;;;;;2.01;100.00;102321.72;5080789;27;20051;-66
2023/03/03 00:45:51;;;;;;;25.40;19.08;;;;;;;2.00;100.00;102332.66;5094664;28;20066;-65
2023/03/03 00:48:28;;;;;;;26.50;19.23;;;;;;;1.81;100.00;102328.53;5061154;28;20052;-65
2023/03/03 00:50:58;;;;;;;26.65;19.83;;;;;;;1.67;100.00;102328.22;5094030;28;20040;-65
2023/03/03 00:53:28;;;;;;;27.55;19.05;;;;;;;1.65;100.00;102324.84;5096703;27;20070;-65
2023/03/03 00:55:56;;;;;;;26.27;17.70;;;;;;;1.80;100.00;102334.88;5083396;28;20101;-65
2023/03/03 00:58:24;;;;;;;26.58;19.10;;;;;;;1.94;100.00;102339.56;5115897;28;20047;-64
2023/03/03 01:00:55;;;;;;;27.02;19.52;;;;;;;1.78;100.00;102331.53;5095340;28;20048;-65
2023/03/03 01:03:28;;;;;;;27.05;20.33;;;;;;;1.63;100.00;102337.63;5079958;28;20051;-64
2023/03/03 01:05:56;;;;;;;26.88;19.58;;;;;;;1.67;100.00;102344.34;5110438;27;20119;-64
2023/03/03 01:08:24;;;;;;;29.58;21.55;;;;;;;1.47;100.00;102343.03;5076723;28;20400;-64
2023/03/03 01:10:55;;;;;;;29.92;20.65;;;;;;;1.40;100.00;102348.25;5094213;28;20051;-64
2023/03/03 01:13:28;;;;;;;28.38;19.75;;;;;;;1.35;100.00;102344.38;5077698;28;20036;-65
2023/03/03 01:15:57;;;;;;;27.42;17.20;;;;;;;1.43;100.00;102349.75;5096700;27;20225;-64
2023/03/03 01:18:26;;;;;;;23.98;17.00;;;;;;;1.51;100.00;102348.91;5093430;28;20402;-65
2023/03/03 01:20:53;;;;;;;25.92;19.02;;;;;;;1.57;100.00;102349.06;5097272;28;20049;-65
2023/03/03 01:23:21;;;;;;;24.77;17.45;;;;;;;1.56;100.00;102358.13;5080415;28;20380;-65
2023/03/03 01:25:49;;;;;;;26.50;18.50;;;;;;;1.48;100.00;102360.81;5109873;27;20114;-64
2023/03/03 01:28:17;;;;;;;26.17;18.95;;;;;;;1.49;100.00;102357.97;5115282;28;20039;-64
2023/03/03 01:30:45;;;;;;;29.00;18.70;;;;;;;1.42;100.00;102366.84;5099305;28;20476;-64
2023/03/03 01:33:12;;;;;;;28.95;20.42;;;;;;;1.44;100.00;102357.66;5076176;28;20044;-64
2023/03/03 01:35:45;;;;;;;27.80;19.17;;;;;;;1.57;100.00;102354.44;5096725;27;20119;-65
2023/03/03 01:38:14;;;;;;;27.27;19.05;;;;;;;1.45;100.00;102355.81;5095341;28;20056;-65
2023/03/03 01:40:42;;;;;;;27.40;19.17;;;;;;;1.32;100.00;102358.97;5113645;28;20051;-65
2023/03/03 01:43:14;;;;;;;26.88;19.35;;;;;;;1.34;100.00;102356.97;5114742;28;20066;-65
2023/03/03 01:46:02;;;;;;;28.95;19.85;;;;;;;1.40;100.00;102360.84;5109188;28;20462;-65
2023/03/03 01:48:37;;;;;;;27.98;19.48;;;;;;;1.32;100.00;102356.28;5094573;28;20044;-64
2023/03/03 01:51:29;;;;;;;26.20;18.98;;;;;;;1.32;100.00;102355.47;5110243;28;20067;-64
2023/03/03 01:54:04;;;;;;;27.05;19.25;;;;;;;1.34;100.00;102353.44;5084973;28;20480;-65
2023/03/03 01:56:31;;;;;;;29.38;20.83;;;;;;;1.42;100.00;102362.34;5099398;27;20056;-65
2023/03/03 01:59:05;;;;;;;30.40;20.67;;;;;;;1.54;100.00;102370.03;5092918;28;20051;-65
2023/03/03 02:01:33;;;;;;;28.88;20.58;;;;;;;1.40;100.00;102363.53;5076238;28;20044;-64
2023/03/03 02:04:02;;;;;;;26.30;18.42;;;;;;;1.43;100.00;102363.19;5075919;28;20063;-66
2023/03/03 02:06:32;;;;;;;27.00;18.90;;;;;;;1.47;100.00;102359.16;5078458;28;20052;-66
2023/03/03 02:09:21;;;;;;;25.23;18.10;;;;;;;1.50;100.00;102369.56;5092234;28;20135;-65
2023/03/03 02:11:51;;;;;;;28.63;19.60;;;;;;;1.52;100.00;102362.16;5092874;28;20105;-66
2023/03/03 02:14:19;;;;;;;28.15;19.35;;;;;;;1.47;100.00;102364.53;5076108;28;20093;-65
2023/03/03 02:16:47;;;;;;;25.83;18.63;;;;;;;1.39;100.00;102368.03;5103639;28;20487;-65
2023/03/03 02:19:49;;;;;;;24.60;17.40;;;;;;;1.30;100.00;102370.91;5081690;28;20048;-64
2023/03/03 02:22:23;;;;;;;23.65;17.27;;;;;;;1.41;100.00;102367.88;5090927;28;20168;-65
2023/03/03 02:24:59;;;;;;;26.75;18.05;;;;;;;1.41;100.00;102362.50;5098886;28;20050;-65
2023/03/03 02:27:29;;;;;;;25.15;17.40;;;;;;;1.39;100.00;102361.84;5075913;28;20051;-65
2023/03/03 02:29:57;;;;;;;24.83;16.92;;;;;;;1.39;100.00;102361.84;5051217;28;20116;-65
2023/03/03 02:32:25;;;;;;;22.90;17.02;;;;;;;1.39;100.00;102361.84;5081814;28;20052;-66
2023/03/03 02:34:53;;;;;;;24.02;17.48;;;;;;;1.42;100.00;102361.50;5092492;28;20043;-65
2023/03/03 02:37:21;;;;;;;24.15;17.25;;;;;;;1.46;100.00;102362.84;5100675;28;20449;-66
2023/03/03 02:39:49;;;;;;;24.02;16.17;;;;;;;1.44;100.00;102354.09;5096374;28;20047;-65
2023/03/03 02:42:24;;;;;;;22.00;15.98;;;;;;;1.43;100.00;102361.34;5109477;28;20067;-65
2023/03/03 02:44:55;;;;;;;24.92;17.63;;;;;;;1.30;100.00;102358.34;5059584;28;20048;-65
2023/03/03 02:47:23;;;;;;;24.60;16.38;;;;;;;1.24;100.00;102354.47;5088105;28;20069;-65
2023/03/03 02:49:50;;;;;;;23.63;16.35;;;;;;;1.21;100.00;102362.03;5095619;28;20399;-65
2023/03/03 02:52:18;;;;;;;23.90;17.02;;;;;;;1.31;100.00;102353.78;5112439;28;20070;-64
2023/03/03 02:54:47;;;;;;;26.38;17.98;;;;;;;1.35;100.00;102360.47;5093799;28;20126;-65
2023/03/03 02:57:15;;;;;;;25.45;17.50;;;;;;;1.26;100.00;102356.97;5070675;28;20480;-64
2023/03/03 02:59:42;;;;;;;25.48;17.63;;;;;;;1.28;100.00;102355.81;5092138;28;20054;-65
2023/03/03 03:02:13;;;;;;;25.75;18.08;;;;;;;1.34;100.00;102364.19;5074647;28;20492;-64
2023/03/03 03:04:41;;;;;;;22.67;15.65;;;;;;;1.28;100.00;102355.81;5091818;28;20568;-65
2023/03/03 03:07:14;;;;;;;22.35;16.20;;;;;;;1.24;100.00;102359.00;5093582;28;20048;-66
2023/03/03 03:09:43;;;;;;;22.50;16.20;;;;;;;1.31;100.00;102359.16;5058297;28;20502;-66
2023/03/03 03:12:11;;;;;;;23.63;16.63;;;;;;;1.23;100.00;102363.53;5093083;28;20127;-65
2023/03/03 03:14:38;;;;;;;24.38;16.95;;;;;;;1.22;100.00;102367.19;5091583;28;20056;-65
2023/03/03 03:17:07;;;;;;;24.02;17.33;;;;;;;1.18;100.00;102373.06;5075000;28;20129;-65
2023/03/03 03:19:34;;;;;;;22.00;15.73;;;;;;;1.20;100.00;102368.38;5093480;28;20143;-65
2023/03/03 03:22:04;;;;;;;23.67;17.15;;;;;;;1.12;100.00;102377.28;5083218;28;20039;-64
2023/03/03 03:24:34;;;;;;;19.33;13.82;;;;;;;0.89;100.00;102382.47;5113755;28;20046;-64
2023/03/03 03:27:07;;;;;;;20.55;12.80;;;;;;;0.93;100.00;102377.59;5095963;28;20079;-65
2023/03/03 03:29:35;;;;;;;22.10;15.25;;;;;;;1.00;100.00;102379.44;5091496;28;20054;-65
2023/03/03 03:32:05;;;;;;;22.13;15.15;;;;;;;1.14;100.00;102375.28;5092736;28;20059;-65
2023/03/03 03:34:33;;;;;;;22.90;15.70;;;;;;;1.21;100.00;102375.44;5058258;28;20054;-66
2023/03/03 03:37:01;;;;;;;23.33;15.95;;;;;;;1.15;100.00;102376.09;5074689;28;20055;-65
2023/03/03 03:39:29;;;;;;;19.77;13.80;;;;;;;1.05;100.00;102374.41;5092783;28;20051;-64
2023/03/03 03:41:57;;;;;;;23.50;16.65;;;;;;;1.02;100.00;102374.75;5074516;28;20044;-63
2023/03/03 03:44:24;;;;;;;23.48;16.75;;;;;;;1.01;100.00;102372.22;5108461;28;20450;-65
2023/03/03 03:46:54;;;;;;;20.75;14.52;;;;;;;1.01;100.00;102374.91;5106459;28;20036;-63
2023/03/03 03:49:21;;;;;;;19.70;13.95;;;;;;;0.98;100.00;102375.25;5091193;28;20424;-65
2023/03/03 03:51:52;;;;;;;23.52;16.63;;;;;;;1.00;100.00;102374.06;5092115;28;20048;-64
2023/03/03 03:54:24;;;;;;;23.10;16.38;;;;;;;0.92;100.00;102381.31;5082482;28;20052;-66
2023/03/03 03:56:53;;;;;;;18.98;14.13;;;;;;;0.98;100.00;102373.41;5095620;28;20454;-62
2023/03/03 03:59:22;;;;;;;22.00;15.60;;;;;;;1.03;100.00;102372.91;5094895;28;20070;-64
2023/03/03 04:01:50;;;;;;;22.42;16.10;;;;;;;0.94;100.00;102380.13;5100466;28;20443;-63
2023/03/03 04:04:19;;;;;;;22.20;16.10;;;;;;;0.84;100.00;102379.41;5082354;28;20058;-62
2023/03/03 04:06:48;;;;;;;23.05;16.40;;;;;;;0.90;100.00;102383.31;5082998;28;20139;-64
2023/03/03 04:09:15;;;;;;;20.75;15.27;;;;;;;0.96;100.00;102388.00;5096257;28;20047;-66
2023/03/03 04:11:46;;;;;;;21.20;15.38;;;;;;;1.03;100.00;102384.50;5081160;28;20043;-65
2023/03/03 04:14:15;;;;;;;21.25;14.88;;;;;;;1.13;100.00;102378.97;5095981;28;20044;-66
2023/03/03 04:16:43;;;;;;;21.35;14.32;;;;;;;1.06;100.00;102381.47;5079745;28;20474;-66
2023/03/03 04:19:11;;;;;;;22.17;16.50;;;;;;;1.14;100.00;102379.81;5108748;27;20047;-66
2023/03/03 04:21:41;;;;;;;20.02;14.48;;;;;;;1.19;100.00;102372.91;5115321;28;20097;-66
2023/03/03 04:24:09;;;;;;;21.02;14.75;;;;;;;1.26;100.00;102379.28;5082256;28;20549;-65
2023/03/03 04:26:38;;;;;;;23.55;16.88;;;;;;;1.25;100.00;102384.81;5098242;28;20381;-65
2023/03/03 04:29:06;;;;;;;22.33;15.57;;;;;;;1.19;100.00;102378.28;5100554;27;20443;-65
2023/03/03 04:31:34;;;;;;;22.92;15.70;;;;;;;1.26;100.00;102389.19;5094752;28;20134;-65
2023/03/03 04:34:03;;;;;;;24.52;16.23;;;;;;;1.19;100.00;102377.47;5094294;28;20139;-65
2023/03/03 04:36:32;;;;;;;21.70;15.55;;;;;;;1.27;100.00;102385.50;5078404;28;20503;-64
2023/03/03 04:39:00;;;;;;;23.15;16.63;;;;;;;1.36;100.00;102383.66;5095560;27;20138;-65
2023/03/03 04:41:28;;;;;;;23.42;16.27;;;;;;;1.35;100.00;102381.97;5077609;28;20043;-65
2023/03/03 04:43:56;;;;;;;24.17;16.90;;;;;;;1.27;100.00;102388.19;5075185;28;20043;-66
2023/03/03 04:46:23;;;;;;;22.02;14.00;;;;;;;1.34;100.00;102385.66;5081250;28;20417;-65
2023/03/03 04:48:52;;;;;;;19.52;12.80;;;;;;;1.31;100.00;102376.09;5113105;28;20044;-65
2023/03/03 04:51:20;;;;;;;22.67;16.20;;;;;;;1.37;100.00;102382.66;5110219;27;20440;-65
2023/03/03 04:53:47;;;;;;;18.23;13.40;;;;;;;1.37;100.00;102385.31;5095590;28;20131;-64
2023/03/03 04:56:15;;;;;;;20.92;15.10;;;;;;;1.36;100.00;102386.34;5094288;28;20113;-64
2023/03/03 04:58:43;;;;;;;24.65;16.48;;;;;;;1.31;100.00;102381.47;5077486;28;20052;-64
2023/03/03 05:01:14;;;;;;;23.52;16.55;;;;;;;1.21;100.00;102388.88;5107601;28;20047;-65
2023/03/03 05:03:42;;;;;;;23.10;16.15;;;;;;;1.27;100.00;102383.69;5095492;28;20052;-65
2023/03/03 05:06:11;;;;;;;24.40;16.80;;;;;;;1.32;100.00;102393.88;5097953;28;20487;-65
2023/03/03 05:08:41;;;;;;;24.13;16.83;;;;;;;1.32;100.00;102391.19;5076653;28;20044;-65
2023/03/03 05:11:09;;;;;;;24.23;16.45;;;;;;;1.31;100.00;102396.75;5109492;27;20455;-64
2023/03/03 05:13:37;;;;;;;23.83;15.88;;;;;;;1.39;100.00;102391.38;5101899;28;20074;-65
2023/03/03 05:16:05;;;;;;;22.65;16.08;;;;;;;1.48;100.00;102398.44;5093876;28;20097;-64
2023/03/03 05:18:33;;;;;;;24.05;17.02;;;;;;;1.53;100.00;102395.22;5095568;28;20051;-65
2023/03/03 05:21:01;;;;;;;23.55;16.02;;;;;;;1.53;100.00;102393.38;5104414;27;20101;-64
2023/03/03 05:23:29;;;;;;;24.50;17.30;;;;;;;1.44;100.00;102395.25;5115525;28;20510;-64
2023/03/03 05:25:57;;;;;;;24.65;17.38;;;;;;;1.50;100.00;102393.72;5114869;28;20062;-64
2023/03/03 05:28:24;;;;;;;23.45;16.90;;;;;;;1.54;100.00;102397.75;5115432;28;20506;-65
2023/03/03 05:30:52;;;;;;;25.88;17.88;;;;;;;1.44;100.00;102395.25;5117607;27;20047;-65
2023/03/03 05:33:19;;;;;;;25.13;18.02;;;;;;;1.37;100.00;102396.94;5113928;28;20380;-65
2023/03/03 05:35:51;;;;;;;25.25;17.80;;;;;;;1.38;100.00;102389.72;5114247;28;20043;-64
2023/03/03 05:38:19;;;;;;;27.08;18.30;;;;;;;1.34;100.00;102391.88;5099205;27;20072;-64
2023/03/03 05:40:47;;;;;;;25.10;17.40;;;;;;;1.38;100.00;102387.84;5114641;28;20046;-64
2023/03/03 05:43:15;;;;;;;26.42;17.77;;;;;;;1.38;100.00;102398.59;5113852;28;20483;-64
2023/03/03 05:45:42;;;;;;;26.10;18.52;;;;;;;1.44;100.00;102397.06;5092466;28;20058;-64
2023/03/03 05:48:10;;;;;;;24.77;17.35;;;;;;;1.48;100.00;102395.75;5094251;28;20502;-65
2023/03/03 05:50:39;;;;;;;29.42;20.08;;;;;;;1.46;100.00;102392.38;5110744;27;20081;-64
2023/03/03 05:53:06;;;;;;;25.77;18.00;;;;;;;1.48;100.00;102398.44;5113259;28;20488;-65
2023/03/03 05:55:34;;;;;;;26.83;18.15;;;;;;;1.51;100.00;102399.94;5114169;28;20051;-65
2023/03/03 05:58:02;;;;;;;25.90;18.83;;;;;;;1.40;100.00;102401.13;5113293;28;20044;-65
2023/03/03 06:00:29;;;;;;;26.13;18.30;;;;;;;1.38;100.00;102397.75;5114162;27;20123;-65
2023/03/03 06:02:57;;;;;;;28.30;18.90;;;;;;;1.39;100.00;102402.13;5112000;28;20040;-64
2023/03/03 06:05:25;;;;;;;27.80;18.55;;;;;;;1.44;100.00;102399.75;5114702;28;20128;-65
2023/03/03 06:07:52;;;;;;;28.02;19.33;;;;;;;1.42;100.00;102393.72;5114422;28;20135;-66
2023/03/03 06:10:20;;;;;;;21.10;15.27;;;;;;;1.44;100.00;102405.13;5113780;27;20119;-65
2023/03/03 06:12:53;;;;;;;27.33;18.88;;;;;;;1.46;100.00;102411.19;5093096;28;20055;-63
2023/03/03 06:15:23;;;;;;;27.50;18.98;;;;;;;1.52;100.00;102412.38;5093544;28;20036;-65
2023/03/03 06:17:52;;;;;;;25.77;18.73;;;;;;;1.48;100.00;102407.31;5075853;28;20047;-64
2023/03/03 06:20:19;;;;;;;27.55;20.27;;;;;;;1.48;100.00;102418.06;5107884;28;20112;-66
2023/03/03 06:22:47;;;;;;;28.42;19.70;;;;;;;1.46;100.00;102421.91;5116041;28;20114;-66
2023/03/03 06:25:15;;;;;;;30.45;20.27;;;;;;;1.43;100.00;102427.63;5097704;28;20055;-66
2023/03/03 06:27:43;;;;;;;28.92;19.45;;;;;;;1.46;100.00;102430.81;5092333;28;20058;-66
2023/03/03 06:30:11;;;;;;;27.90;19.40;;;;;;;1.41;100.00;102437.72;5105444;28;20043;-65
2023/03/03 06:32:39;;;;;;;32.22;21.90;;;;;;;1.37;100.00;102439.03;5113478;28;20054;-62
2023/03/03 06:35:07;;;;;;;32.28;21.80;;;;;;;1.38;100.00;102436.19;5113906;28;20096;-66
2023/03/03 06:37:35;;;;;;;32.22;21.75;;;;;;;1.37;100.00;102444.41;4749912;28;10000158;-65
2023/03/03 06:40:05;;;;;;;33.42;22.45;;;;;;;1.34;100.00;102447.44;5098819;28;20392;-66
2023/03/03 06:42:32;;;;;;;30.40;21.75;;;;;;;1.36;100.00;102454.31;5087457;28;20130;-66
2023/03/03 06:45:00;;;;;;;31.00;21.70;;;;;;;1.37;100.00;102450.66;5088281;28;20044;-63
2023/03/03 06:47:28;;;;;;;30.73;19.75;;;;;;;1.35;100.00;102462.53;5089887;28;20374;-65
2023/03/03 06:49:55;;;;;;;29.75;19.52;;;;;;;1.40;100.00;102462.91;5089698;27;20053;-65
2023/03/03 06:52:26;;;;;;;26.05;17.35;;;;;;;1.46;100.00;102464.91;5108832;28;20044;-61
2023/03/03 06:54:56;;;;;;;26.20;18.40;;;;;;;1.55;100.00;102463.91;5108494;28;20047;-66
2023/03/03 06:57:31;;;;;;;28.58;18.42;;;;;;;1.58;100.00;102468.94;5092278;28;20680;-64
2023/03/03 07:00:10;;;;;;;27.67;19.20;;;;;;;1.62;100.00;102467.59;5109884;28;20054;-65
2023/03/03 07:02:37;;;;;;;30.02;20.42;;;;;;;1.68;100.00;102466.06;5091738;28;20051;-63
2023/03/03 07:05:12;;;;;;;31.17;20.92;;;;;;;1.62;100.00;102472.13;5087694;28;20051;-64
2023/03/03 07:07:40;;;;;;;32.53;22.55;;;;;;;1.61;100.00;102471.31;5088691;28;20044;-64
2023/03/03 07:10:26;;;;;;;29.58;19.58;;;;;;;1.51;100.00;102467.91;5087845;28;20047;-64
2023/03/03 07:12:54;;;;;;;;;;;;;;;1.43;100.00;102475.97;5095717;28;20050;-64
2023/03/03 07:15:34;;;;;;;34.67;24.05;;;;;;;1.39;100.00;102474.63;5108299;28;19941;-66
2023/03/03 07:18:03;;;;;;;36.25;22.60;;;;;;;1.42;100.00;102472.47;5108048;28;20506;-65
2023/03/03 07:20:35;;;;;;;34.97;22.30;;;;;;;1.46;100.00;102475.63;5108504;28;20039;-66
2023/03/03 07:23:25;;;;;;;33.00;21.10;;;;;;;1.48;100.00;102481.69;5085439;28;20066;-64
2023/03/03 07:25:53;;;;;;;30.77;20.15;;;;;;;1.44;100.00;102474.97;5087915;28;20055;-65
2023/03/03 07:28:28;;;;;;;26.98;17.17;;;;;;;1.49;100.00;102491.41;5085598;28;20056;-64
2023/03/03 07:30:57;;;;;;;26.50;18.25;;;;;;;1.51;100.00;102494.78;5089099;28;20411;-65
2023/03/03 07:33:28;;;;;;;28.08;18.02;;;;;;;1.50;100.00;102495.78;5071013;28;20488;-65
2023/03/03 07:35:57;;;;;;;27.75;17.75;;;;;;;1.56;100.00;102489.75;5089221;28;20498;-62
2023/03/03 07:38:30;;;;;;;26.48;17.65;;;;;;;1.61;100.00;102495.47;5093459;28;20470;-64
2023/03/03 07:41:01;;;;;;;27.45;17.77;;;;;;;1.65;100.00;102501.34;5103532;28;20494;-64
2023/03/03 07:43:49;;;;;;;28.60;19.10;;;;;;;1.67;100.00;102499.34;5111607;28;20106;-64
2023/03/03 07:46:42;;;;;;;29.17;18.35;;;;;;;1.65;100.00;102495.97;5113388;28;20108;-65
2023/03/03 07:49:23;;;;;;;27.05;18.05;;;;;;;1.61;100.00;102506.22;5083192;28;20069;-65
2023/03/03 07:51:57;;;;;;;25.73;17.33;;;;;;;1.60;100.00;102509.06;5115695;28;20048;-64
2023/03/03 07:54:44;;;;;;;27.88;18.55;;;;;;;1.63;100.00;102514.09;5117502;28;20043;-65
2023/03/03 07:57:18;;;;;;;28.05;18.63;;;;;;;1.69;100.00;102519.66;5100820;28;20100;-64
2023/03/03 07:59:51;;;;;;;32.70;20.23;;;;;;;1.72;100.00;102514.94;5132021;28;20117;-62
2023/03/03 08:02:48;;;;;;;30.95;20.13;;;;;;;1.60;100.00;102515.28;5130753;28;20118;-64
2023/03/03 08:05:34;;;;;;;29.95;19.27;;;;;;;1.58;100.00;102513.75;5099654;28;20047;-64
2023/03/03 08:08:08;;;;;;;27.63;18.58;;;;;;;1.57;100.00;102521.00;5129260;28;20066;-63
2023/03/03 08:10:43;;;;;;;24.15;15.70;;;;;;;1.58;100.00;102528.03;5111663;28;20422;-65
2023/03/03 08:13:20;;;;;;;26.35;17.67;;;;;;;1.53;100.00;102527.69;5084152;28;20064;-65
2023/03/03 08:16:08;;;;;;;23.38;16.02;;;;;;;1.55;100.00;102520.31;5095163;28;20048;-66
2023/03/03 08:18:46;;;;;;;24.33;15.50;;;;;;;1.61;100.00;102521.47;5097322;28;20440;-66
2023/03/03 08:21:14;;;;;;;23.20;14.75;;;;;;;1.71;100.00;102530.25;5095706;28;20073;-64
2023/03/03 08:23:43;;;;;;;24.45;16.05;;;;;;;1.79;100.00;102526.72;5084068;28;20044;-63
2023/03/03 08:26:15;;;;;;;26.42;17.13;;;;;;;1.76;100.00;102533.25;5106767;28;20071;-64
2023/03/03 08:28:44;;;;;;;24.80;16.77;;;;;;;1.69;100.00;102534.94;5116332;28;20059;-65
2023/03/03 08:31:11;;;;;;;22.17;15.52;;;;;;;1.66;100.00;102549.53;5081595;28;20134;-65
2023/03/03 08:33:51;;;;;;;25.83;16.55;;;;;;;1.61;100.00;102551.91;5113014;28;20036;-65
2023/03/03 08:36:19;;;;;;;24.50;16.27;;;;;;;1.60;100.00;102550.19;5115188;28;20556;-66
2023/03/03 08:38:46;;;;;;;22.50;14.95;;;;;;;1.57;100.00;102542.47;5116112;28;20056;-65
2023/03/03 08:41:14;;;;;;;23.10;14.38;;;;;;;1.61;100.00;102549.22;5102599;28;20043;-65
2023/03/03 08:43:44;;;;;;;21.70;14.25;;;;;;;1.67;100.00;102558.44;5114874;28;20043;-64
2023/03/03 08:46:11;;;;;;;21.80;14.45;;;;;;;1.69;100.00;102554.56;5113819;28;20123;-64
2023/03/03 08:48:39;;;;;;;21.65;14.50;;;;;;;1.69;100.00;102561.81;5098131;28;20531;-65
2023/03/03 08:51:07;;;;;;;23.02;15.80;;;;;;;1.79;100.00;102561.66;5115829;28;20040;-65
2023/03/03 08:53:37;;;;;;;21.30;14.30;;;;;;;1.81;100.00;102556.94;5089604;28;20348;-65
2023/03/03 08:56:05;;;;;;;21.02;13.98;;;;;;;1.87;100.00;102548.19;5095761;28;20381;-65
2023/03/03 08:58:33;;;;;;;19.88;13.18;;;;;;;1.88;100.00;102560.66;5078258;28;20048;-65
2023/03/03 09:01:03;;;;;;;20.77;12.68;;;;;;;1.87;100.00;102558.94;5095239;28;20048;-66
2023/03/03 09:03:31;;;;;;;18.98;12.63;;;;;;;1.90;100.00;102558.59;5093924;28;20054;-65
2023/03/03 09:05:58;;;;;;;21.38;13.38;;;;;;;1.89;100.00;102568.53;5095309;28;20048;-64
2023/03/03 09:08:26;;;;;;;22.17;14.18;;;;;;;2.03;100.00;102568.88;5077192;28;20044;-65
2023/03/03 09:10:54;;;;;;;21.52;14.20;;;;;;;1.98;100.00;102566.69;5083098;28;20093;-64
2023/03/03 09:13:22;;;;;;;18.85;12.95;;;;;;;1.97;100.00;102565.00;5094120;28;20052;-65
2023/03/03 09:15:49;;;;;;;20.90;12.52;;;;;;;1.98;100.00;102566.69;5095502;28;20557;-66
2023/03/03 09:18:21;;;;;;;22.00;13.45;;;;;;;1.98;100.00;102563.16;5077058;28;20093;-64
2023/03/03 09:20:50;;;;;;;20.15;12.60;;;;;;;2.02;100.00;102565.34;5093749;28;20052;-64
2023/03/03 09:23:34;;;;;;;19.50;12.48;;;;;;;2.14;100.00;102568.53;5063254;28;20112;-64
2023/03/03 09:26:28;;;;;;;18.48;12.02;;;;;;;2.10;100.00;102570.72;5115141;28;20049;-65
2023/03/03 09:29:14;;;;;;;20.17;12.15;;;;;;;2.09;100.00;102573.56;5096953;28;20052;-65
2023/03/03 09:31:48;;;;;;;19.40;12.48;;;;;;;2.10;100.00;102570.72;5114145;28;20117;-65
2023/03/03 09:34:21;;;;;;;20.08;12.68;;;;;;;2.15;100.00;102582.81;5113744;28;20058;-64
2023/03/03 09:36:50;;;;;;;23.48;13.48;;;;;;;2.26;100.00;102585.16;5113584;28;20055;-66
2023/03/03 09:39:20;;;;;;;19.90;12.43;;;;;;;2.23;100.00;102582.81;5094806;28;20063;-66
2023/03/03 09:42:09;;;;;;;19.00;12.65;;;;;;;2.23;100.00;102577.44;5114021;28;20040;-64
2023/03/03 09:44:41;;;;;;;19.33;12.07;;;;;;;2.30;100.00;102581.13;5114814;28;20142;-64
2023/03/03 09:47:39;;;;;;;19.23;11.95;;;;;;;2.29;100.00;102588.38;5115157;27;20410;-63
2023/03/03 09:50:23;;;;;;;18.80;12.43;;;;;;;2.28;100.00;102586.66;5095446;28;20495;-63
2023/03/03 09:53:16;;;;;;;20.23;12.75;;;;;;;2.32;100.00;102585.31;5116424;28;20067;-62
2023/03/03 09:56:02;;;;;;;18.85;11.70;;;;;;;2.37;100.00;102582.13;5115312;28;20461;-62
2023/03/03 09:58:33;;;;;;;20.73;12.48;;;;;;;2.38;100.00;102581.09;5116053;28;20050;-63
2023/03/03 10:01:21;;;;;;;20.58;13.40;;;;;;;2.34;100.00;102585.16;5101139;28;20303;-64
2023/03/03 10:04:21;;;;;;;20.98;13.02;;;;;;;2.32;100.00;102584.50;5093713;28;20408;-62
2023/03/03 10:07:06;;;;;;;20.23;12.68;;;;;;;2.36;100.00;102580.47;5057801;28;20158;-64
2023/03/03 10:10:05;;;;;;;20.08;13.20;;;;;;;2.44;100.00;102577.75;5078688;28;20048;-64
2023/03/03 10:12:57;;;;;;;22.08;12.63;;;;;;;2.52;100.00;102582.25;5092740;28;20407;-63
2023/03/03 10:15:51;;;;;;;18.95;12.07;;;;;;;2.55;100.00;102585.47;5112751;28;20044;-64
2023/03/03 10:18:33;;;;;;;23.75;12.50;;;;;;;2.51;100.00;102584.13;5113358;28;20129;-64
2023/03/03 10:21:09;;;;;;;18.83;11.93;;;;;;;2.51;100.00;102584.13;5108925;28;20048;-64
2023/03/03 10:23:58;;;;;;;18.15;11.35;;;;;;;2.55;100.00;102590.84;5092820;28;20044;-63
2023/03/03 10:26:50;;;;;;;19.38;11.43;;;;;;;2.56;100.00;102581.75;5095074;28;20495;-63
2023/03/03 10:29:53;;;;;;;18.85;11.70;;;;;;;2.60;100.00;102581.41;5092827;28;20378;-64
2023/03/03 10:32:30;;;;;;;16.75;10.45;;;;;;;2.64;100.00;102583.59;5092652;28;20044;-64
2023/03/03 10:35:13;;;;;;;18.27;11.55;;;;;;;2.68;100.00;102589.47;5093651;28;20076;-64
2023/03/03 10:38:54;;;;;;;19.50;11.50;;;;;;;2.69;100.00;102588.44;5099652;28;20043;-64
2023/03/03 10:41:30;;;;;;;15.85;10.48;;;;;;;2.72;100.00;102590.81;5024438;28;20068;-65
2023/03/03 10:44:19;;;;;;;17.88;10.30;;;;;;;2.80;100.00;102587.25;5034590;28;20049;-64
2023/03/03 10:47:11;;;;;;;19.02;11.45;;;;;;;2.82;100.00;102586.06;5074732;28;20460;-64
2023/03/03 10:49:54;;;;;;;16.90;11.07;;;;;;;2.88;100.00;102581.84;5093462;28;20048;-64
2023/03/03 10:52:40;;;;;;;15.07;9.75;;;;;;;2.95;100.00;102586.34;5091568;28;20047;-64
2023/03/03 10:55:35;;;;;;;16.35;10.60;;;;;;;3.10;100.00;102591.00;5112454;28;20039;-64
2023/03/03 10:58:33;;;;;;;14.88;10.13;;;;;;;3.03;100.00;102592.72;5107616;28;20105;-64
2023/03/03 11:01:20;;;;;;;16.55;10.55;;;;;;;2.97;100.00;102594.25;5091883;28;20368;-65
2023/03/03 11:04:14;;;;;;;18.38;10.20;;;;;;;2.98;100.00;102577.94;5093126;28;20158;-63
2023/03/03 11:07:32;;;;;;;16.38;9.90;;;;;;;3.09;100.00;102582.09;5092674;28;20047;-64
2023/03/03 11:10:27;;;;;;;16.70;10.77;;;;;;;3.17;100.00;102583.91;5068212;28;20068;-64
2023/03/03 11:13:26;;;;;;;17.88;10.95;;;;;;;3.14;100.00;102581.56;5097692;28;20044;-64
2023/03/03 11:16:03;;;;;;;18.05;10.52;;;;;;;3.15;100.00;102581.41;5064337;28;20055;-64
2023/03/03 11:18:53;;;;;;;14.90;9.68;;;;;;;3.21;100.00;102569.09;5116235;28;20058;-66
2023/03/03 11:21:44;;;;;;;16.58;9.90;;;;;;;3.27;100.00;102575.63;5112833;28;20052;-64
2023/03/03 11:24:50;;;;;;;18.88;10.75;;;;;;;3.33;100.00;102573.06;5070162;28;20052;-63
2023/03/03 11:27:26;;;;;;;15.65;10.38;;;;;;;3.34;100.00;102573.88;5085293;28;20059;-65
2023/03/03 11:29:59;;;;;;;;;;;;;;;3.37;100.00;102568.16;5097843;28;20496;-64
2023/03/03 11:32:37;;;;;;;17.98;9.75;;;;;;;3.38;100.00;102575.22;5079283;28;20391;-65
2023/03/03 11:35:26;;;;;;;15.68;9.75;;;;;;;3.40;100.00;102560.56;5097706;28;20496;-62
2023/03/03 11:38:15;;;;;;;15.95;9.13;;;;;;;3.54;100.00;102568.91;5116476;28;20132;-65
2023/03/03 11:41:06;;;;;;;16.55;9.60;;;;;;;3.61;100.00;102564.50;5115593;28;20054;-65